Terminal Aerodrome Forecast
Issued by NWS

Home | Current Version | Previous Version | Text Only | Print | Product List | Glossary Off
Versions: 1 2 3 4 5 6 7 8 9 10 11 12 13 14 15 16 17 18

036
FTUS43 KTOP 251403 AAA
TAFFOE
TAF AMD
KFOE 251403Z 2514/2612 27009KT 4SM RA BR BKN015
     FM251530 33011KT P6SM SCT015 SCT050=

USA.gov is the U.S. government's official web portal to all federal, state and local government web resources and services.